Time;durP1;ratioP1;P1;durP2;ratioP2;P2;SDS_P1;SDS_P2;PMS_P1;PMS_P2;Temp;Humidity;BMP_temperature;BMP_pressure;BME280_temperature;BME280_humidity;BME280_pressure;Samples;Min_cycle;Max_cycle;Signal;HPM_P1;HPM_P2
2022/03/08 00:00:57;;;;;;;58.70;33.53;;;;;;;;;;6161282;23;20032;-93
2022/03/08 00:03:23;;;;;;;59.38;34.38;;;;;;;;;;6160641;23;20376;-93
2022/03/08 00:05:49;;;;;;;58.03;33.10;;;;;;;;;;6160190;23;20032;-93
2022/03/08 00:08:15;;;;;;;56.53;32.33;;;;;;;;;;6160712;23;20009;-92
2022/03/08 00:10:41;;;;;;;57.22;33.05;;;;;;;;;;6161971;23;20076;-93
2022/03/08 00:13:07;;;;;;;53.63;31.83;;;;;;;;;;6161712;23;20009;-92
2022/03/08 00:15:33;;;;;;;59.50;30.20;;;;;;;;;;6161870;23;20024;-92
2022/03/08 00:17:59;;;;;;;52.10;28.58;;;;;;;;;;6161979;23;19997;-92
2022/03/08 00:20:25;;;;;;;52.28;28.73;;;;;;;;;;6160708;23;20044;-94
2022/03/08 00:22:52;;;;;;;49.70;28.45;;;;;;;;;;6162061;23;20284;-91
2022/03/08 00:25:18;;;;;;;48.30;28.17;;;;;;;;;;6160534;23;20052;-91
2022/03/08 00:27:46;;;;;;;45.53;25.77;;;;;;;;;;6161903;23;20002;-91
2022/03/08 00:30:14;;;;;;;48.78;28.05;;;;;;;;;;6160326;23;20021;-94
2022/03/08 00:32:40;;;;;;;59.78;31.20;;;;;;;;;;6161598;23;20008;-93
2022/03/08 00:35:06;;;;;;;59.95;33.05;;;;;;;;;;6160458;23;20028;-91
2022/03/08 00:37:32;;;;;;;55.08;30.65;;;;;;;;;;6160414;23;20001;-92
2022/03/08 00:39:59;;;;;;;57.88;30.55;;;;;;;;;;6161991;23;20002;-92
2022/03/08 00:42:25;;;;;;;49.08;29.10;;;;;;;;;;6161851;23;19998;-92
2022/03/08 00:44:51;;;;;;;48.67;29.08;;;;;;;;;;6161858;23;19994;-92
2022/03/08 00:47:17;;;;;;;46.53;27.83;;;;;;;;;;6161878;23;20051;-93
2022/03/08 00:49:43;;;;;;;48.90;27.75;;;;;;;;;;6161429;23;20009;-91
2022/03/08 00:52:09;;;;;;;46.42;27.55;;;;;;;;;;6160338;23;20267;-91
2022/03/08 00:54:36;;;;;;;49.05;28.35;;;;;;;;;;6161992;23;20018;-91
2022/03/08 00:57:02;;;;;;;49.40;28.58;;;;;;;;;;6161419;23;20001;-92
2022/03/08 00:59:28;;;;;;;50.35;29.80;;;;;;;;;;6161042;23;20018;-91
2022/03/08 01:01:54;;;;;;;46.83;28.35;;;;;;;;;;6160580;23;20009;-92
2022/03/08 01:04:20;;;;;;;48.83;28.88;;;;;;;;;;6161399;23;20185;-91
2022/03/08 01:06:46;;;;;;;47.67;29.17;;;;;;;;;;6160143;23;20407;-92
2022/03/08 01:09:12;;;;;;;48.45;28.40;;;;;;;;;;6160110;23;20048;-93
2022/03/08 01:14:42;;;;;;;50.83;28.70;;;;;;;;;;6161569;23;20021;-93
2022/03/08 01:17:08;;;;;;;45.97;28.33;;;;;;;;;;6161286;23;20369;-92
2022/03/08 01:19:34;;;;;;;44.60;27.08;;;;;;;;;;6161681;23;20009;-93
2022/03/08 01:22:00;;;;;;;50.05;30.13;;;;;;;;;;6161668;23;20093;-93
2022/03/08 01:24:28;;;;;;;52.17;28.85;;;;;;;;;;6159805;23;20135;-93
2022/03/08 01:30:35;;;;;;;47.95;28.23;;;;;;;;;;6160866;23;20008;-92
2022/03/08 01:33:02;;;;;;;49.05;27.58;;;;;;;;;;6160905;23;20033;-92
2022/03/08 01:35:28;;;;;;;49.20;29.88;;;;;;;;;;6161686;23;20052;-93
2022/03/08 01:37:54;;;;;;;47.78;28.17;;;;;;;;;;6161213;23;19997;-92
2022/03/08 01:40:20;;;;;;;51.75;28.95;;;;;;;;;;6161428;23;20253;-92
2022/03/08 01:42:48;;;;;;;50.90;30.25;;;;;;;;;;6161385;23;20010;-92
2022/03/08 01:45:18;;;;;;;47.63;27.95;;;;;;;;;;6161378;23;20089;-92
2022/03/08 01:47:44;;;;;;;48.10;28.58;;;;;;;;;;6159938;23;20006;-93
2022/03/08 01:50:11;;;;;;;50.58;31.20;;;;;;;;;;6160914;23;20051;-91
2022/03/08 01:52:38;;;;;;;52.88;31.42;;;;;;;;;;6159594;23;20072;-92
2022/03/08 01:55:04;;;;;;;54.38;30.55;;;;;;;;;;6161257;23;20368;-92
2022/03/08 01:57:30;;;;;;;55.33;31.98;;;;;;;;;;6160085;23;20068;-92
2022/03/08 01:59:56;;;;;;;56.00;32.95;;;;;;;;;;6160844;23;20103;-92
2022/03/08 02:02:23;;;;;;;53.00;30.98;;;;;;;;;;6159612;23;20006;-92
2022/03/08 02:04:49;;;;;;;59.08;35.75;;;;;;;;;;6161018;23;20001;-92
2022/03/08 02:07:15;;;;;;;60.20;34.13;;;;;;;;;;6161163;23;20028;-93
2022/03/08 02:09:41;;;;;;;57.95;33.00;;;;;;;;;;6161059;23;19994;-92
2022/03/08 02:12:08;;;;;;;56.25;31.60;;;;;;;;;;6161211;23;20005;-92
2022/03/08 02:14:34;;;;;;;54.72;32.08;;;;;;;;;;6160650;23;20085;-92
2022/03/08 02:17:00;;;;;;;54.33;32.28;;;;;;;;;;6160986;23;20021;-93
2022/03/08 02:19:26;;;;;;;55.15;31.10;;;;;;;;;;6161377;23;20064;-93
2022/03/08 02:21:54;;;;;;;53.35;29.92;;;;;;;;;;6161341;23;20002;-93
2022/03/08 02:24:20;;;;;;;51.75;30.42;;;;;;;;;;6159869;23;20033;-93
2022/03/08 02:26:47;;;;;;;54.45;30.80;;;;;;;;;;6160769;23;19994;-93
2022/03/08 02:29:13;;;;;;;53.13;31.48;;;;;;;;;;6161035;23;20361;-92
2022/03/08 02:31:39;;;;;;;49.20;28.70;;;;;;;;;;6159363;23;20001;-93
2022/03/08 02:34:05;;;;;;;52.45;30.45;;;;;;;;;;6161118;23;20005;-92
2022/03/08 02:36:31;;;;;;;55.33;30.63;;;;;;;;;;6161087;23;19994;-92
2022/03/08 02:38:57;;;;;;;52.20;29.25;;;;;;;;;;6161372;23;20002;-93
2022/03/08 02:41:24;;;;;;;52.30;29.75;;;;;;;;;;6160744;23;20032;-91
2022/03/08 02:43:50;;;;;;;56.58;30.05;;;;;;;;;;6162557;23;20418;-93
2022/03/08 02:46:16;;;;;;;47.65;28.30;;;;;;;;;;6162955;23;20006;-93
2022/03/08 02:48:42;;;;;;;49.83;29.73;;;;;;;;;;6162480;23;20002;-92
2022/03/08 02:51:08;;;;;;;51.65;28.50;;;;;;;;;;6161403;23;20012;-93
2022/03/08 02:53:34;;;;;;;50.42;28.52;;;;;;;;;;6162388;23;20257;-94
2022/03/08 02:56:00;;;;;;;52.92;30.20;;;;;;;;;;6161274;23;20293;-92
2022/03/08 02:58:27;;;;;;;53.08;31.33;;;;;;;;;;6162474;23;20130;-93
2022/03/08 03:00:54;;;;;;;53.92;29.75;;;;;;;;;;6162409;23;20085;-93
2022/03/08 03:03:22;;;;;;;54.92;29.88;;;;;;;;;;6162870;23;20084;-93
2022/03/08 03:05:49;;;;;;;53.65;29.63;;;;;;;;;;6162712;23;20009;-92
2022/03/08 03:11:02;;;;;;;54.67;29.08;;;;;;;;;;6162294;23;20021;-93
2022/03/08 03:18:58;;;;;;;60.88;32.35;;;;;;;;;;6160995;23;20056;-90
2022/03/08 04:00:29;;;;;;;59.65;29.48;;;;;;;;;;6162410;23;20020;-92
2022/03/08 04:30:04;;;;;;;50.67;28.02;;;;;;;;;;6187193;23;20084;-88
2022/03/08 06:20:19;;;;;;;54.30;29.80;;;;;;;;;;6192655;23;20016;-93
2022/03/08 06:22:48;;;;;;;53.78;29.60;;;;;;;;;;6193121;23;20012;-92
2022/03/08 06:25:15;;;;;;;53.03;29.70;;;;;;;;;;6192731;23;20091;-92
2022/03/08 06:27:46;;;;;;;57.70;31.40;;;;;;;;;;6192776;23;20001;-91
2022/03/08 06:30:13;;;;;;;57.38;29.65;;;;;;;;;;6166384;23;20055;-93
2022/03/08 06:32:40;;;;;;;53.40;29.75;;;;;;;;;;6192757;23;20095;-93
2022/03/08 06:35:06;;;;;;;53.20;29.33;;;;;;;;;;6192401;23;20005;-93
2022/03/08 06:37:32;;;;;;;57.65;29.33;;;;;;;;;;6192952;23;20001;-93
2022/03/08 06:39:58;;;;;;;57.15;30.77;;;;;;;;;;6166188;23;20001;-93
2022/03/08 06:42:24;;;;;;;59.63;30.33;;;;;;;;;;6192725;23;20242;-93
2022/03/08 06:44:51;;;;;;;54.42;30.95;;;;;;;;;;6166539;23;20004;-92
2022/03/08 06:47:17;;;;;;;58.22;31.38;;;;;;;;;;6191754;23;20264;-93
2022/03/08 06:49:43;;;;;;;57.33;29.60;;;;;;;;;;6192523;23;20044;-91
2022/03/08 06:52:11;;;;;;;56.13;30.67;;;;;;;;;;6192670;23;20002;-92
2022/03/08 06:54:37;;;;;;;57.75;32.58;;;;;;;;;;6192524;23;20046;-92
2022/03/08 06:57:22;;;;;;;67.53;38.28;;;;;;;;;;6192079;23;20004;-92
2022/03/08 06:59:48;;;;;;;65.70;37.65;;;;;;;;;;6192497;23;20067;-91
2022/03/08 07:02:14;;;;;;;67.63;37.25;;;;;;;;;;6165829;23;20009;-94
2022/03/08 07:04:40;;;;;;;63.28;34.40;;;;;;;;;;6166155;23;20005;-92
2022/03/08 07:07:06;;;;;;;60.05;32.05;;;;;;;;;;6166024;23;20015;-91
2022/03/08 07:09:32;;;;;;;60.63;31.90;;;;;;;;;;6192070;23;19997;-92
2022/03/08 07:11:58;;;;;;;62.22;34.13;;;;;;;;;;6192140;23;20012;-92
2022/03/08 07:14:24;;;;;;;63.97;35.92;;;;;;;;;;6191984;23;20121;-93
2022/03/08 07:16:50;;;;;;;65.75;36.55;;;;;;;;;;6192354;23;20048;-92
2022/03/08 07:19:16;;;;;;;64.68;35.03;;;;;;;;;;6192231;23;19993;-92
2022/03/08 07:21:43;;;;;;;67.43;37.58;;;;;;;;;;6192596;23;20119;-93
2022/03/08 07:24:09;;;;;;;89.75;46.70;;;;;;;;;;6165837;23;20089;-93
2022/03/08 07:26:35;;;;;;;69.65;36.20;;;;;;;;;;6165921;23;20005;-92
2022/03/08 07:29:01;;;;;;;56.90;31.15;;;;;;;;;;6191925;23;20009;-92
2022/03/08 07:31:27;;;;;;;51.17;29.42;;;;;;;;;;6165871;23;20005;-92
2022/03/08 07:33:54;;;;;;;49.75;29.52;;;;;;;;;;6165593;23;20009;-92
2022/03/08 07:36:20;;;;;;;48.08;28.80;;;;;;;;;;6192013;23;20028;-93
2022/03/08 07:38:46;;;;;;;48.58;27.73;;;;;;;;;;6191650;23;20005;-93
2022/03/08 07:41:12;;;;;;;50.53;28.98;;;;;;;;;;6191968;23;20012;-92
2022/03/08 07:43:39;;;;;;;56.13;29.27;;;;;;;;;;6192258;23;20009;-93
2022/03/08 07:46:06;;;;;;;48.08;28.67;;;;;;;;;;6165837;23;20005;-93
2022/03/08 07:48:32;;;;;;;50.50;28.30;;;;;;;;;;6193221;23;20005;-93
2022/03/08 07:50:59;;;;;;;64.60;35.70;;;;;;;;;;6191976;23;20000;-92
2022/03/08 07:53:25;;;;;;;45.97;26.48;;;;;;;;;;6191576;23;20367;-92
2022/03/08 07:55:51;;;;;;;48.78;26.35;;;;;;;;;;6165827;23;20435;-91
2022/03/08 07:58:17;;;;;;;51.38;28.98;;;;;;;;;;6192092;23;19998;-92
2022/03/08 08:00:43;;;;;;;48.53;26.55;;;;;;;;;;6191930;23;20001;-92
2022/03/08 08:03:09;;;;;;;45.78;24.73;;;;;;;;;;6166032;23;20091;-92
2022/03/08 08:05:36;;;;;;;41.58;24.73;;;;;;;;;;6165775;23;20009;-93
2022/03/08 08:08:03;;;;;;;38.92;23.33;;;;;;;;;;6191842;23;20012;-92
2022/03/08 08:10:29;;;;;;;41.42;23.20;;;;;;;;;;6191853;23;20005;-94
2022/03/08 08:12:55;;;;;;;39.45;24.55;;;;;;;;;;6191525;23;20028;-93
2022/03/08 08:15:21;;;;;;;42.65;23.45;;;;;;;;;;6191137;23;20072;-92
2022/03/08 08:17:47;;;;;;;43.25;24.55;;;;;;;;;;6191910;23;20001;-92
2022/03/08 08:20:14;;;;;;;39.05;23.08;;;;;;;;;;6191506;23;20340;-93
2022/03/08 08:22:40;;;;;;;52.22;25.77;;;;;;;;;;6191856;23;20016;-94
2022/03/08 08:25:07;;;;;;;46.88;25.20;;;;;;;;;;6165774;23;20008;-93
2022/03/08 08:27:33;;;;;;;36.28;21.55;;;;;;;;;;6191448;23;20001;-92
2022/03/08 08:29:59;;;;;;;32.80;19.08;;;;;;;;;;6191601;23;19997;-92
2022/03/08 08:32:25;;;;;;;28.20;16.30;;;;;;;;;;6164863;23;20001;-91
2022/03/08 08:34:51;;;;;;;27.10;15.70;;;;;;;;;;6191630;23;20307;-93
2022/03/08 08:37:17;;;;;;;31.85;17.65;;;;;;;;;;6191696;23;20256;-93
2022/03/08 08:39:43;;;;;;;25.38;14.43;;;;;;;;;;6190862;23;20008;-92
2022/03/08 08:42:09;;;;;;;32.10;16.52;;;;;;;;;;6191265;23;20001;-92
2022/03/08 08:44:35;;;;;;;23.40;15.27;;;;;;;;;;6165707;23;20017;-92
2022/03/08 08:47:02;;;;;;;25.55;14.57;;;;;;;;;;6164931;23;20005;-91
2022/03/08 08:49:28;;;;;;;19.77;12.88;;;;;;;;;;6191588;23;20005;-90
2022/03/08 08:51:55;;;;;;;26.90;14.00;;;;;;;;;;6191205;23;20005;-91
2022/03/08 08:54:21;;;;;;;21.30;13.35;;;;;;;;;;6191136;23;20025;-91
2022/03/08 08:56:48;;;;;;;49.38;24.98;;;;;;;;;;6191609;23;20005;-92
2022/03/08 08:59:14;;;;;;;32.10;14.75;;;;;;;;;;6191377;23;20001;-92
2022/03/08 09:01:40;;;;;;;28.20;15.85;;;;;;;;;;6165096;23;20075;-93
2022/03/08 09:04:06;;;;;;;24.27;13.57;;;;;;;;;;6165013;23;20368;-91
2022/03/08 09:06:32;;;;;;;54.80;32.58;;;;;;;;;;6165270;23;20017;-92
2022/03/08 09:08:59;;;;;;;32.20;19.15;;;;;;;;;;6191611;23;20001;-91
2022/03/08 09:11:25;;;;;;;20.20;12.85;;;;;;;;;;6191421;23;20004;-92
2022/03/08 09:13:51;;;;;;;18.60;11.93;;;;;;;;;;6191034;23;20069;-92
2022/03/08 09:16:18;;;;;;;19.20;12.18;;;;;;;;;;6191257;23;20047;-91
2022/03/08 09:18:44;;;;;;;17.15;11.30;;;;;;;;;;6165049;23;20000;-92
2022/03/08 09:21:11;;;;;;;23.42;13.02;;;;;;;;;;6191265;23;20088;-93
2022/03/08 09:23:38;;;;;;;18.17;10.07;;;;;;;;;;6191099;23;20009;-92
2022/03/08 09:26:05;;;;;;;19.60;12.20;;;;;;;;;;6191567;23;20001;-91
2022/03/08 09:28:31;;;;;;;18.10;10.98;;;;;;;;;;6164558;23;20012;-93
2022/03/08 09:30:59;;;;;;;15.30;10.38;;;;;;;;;;6191348;23;20075;-93
2022/03/08 09:33:25;;;;;;;16.85;11.02;;;;;;;;;;6191177;23;20009;-92
2022/03/08 09:35:51;;;;;;;18.23;10.77;;;;;;;;;;6191384;23;20002;-93
2022/03/08 09:38:17;;;;;;;18.98;10.93;;;;;;;;;;6191274;23;19997;-94
2022/03/08 09:40:43;;;;;;;15.88;10.18;;;;;;;;;;6191309;23;20001;-92
2022/03/08 09:43:09;;;;;;;16.05;10.10;;;;;;;;;;6190936;23;20024;-91
2022/03/08 09:45:35;;;;;;;16.02;9.90;;;;;;;;;;6164657;23;20009;-92
2022/03/08 09:48:02;;;;;;;14.68;9.93;;;;;;;;;;6191403;23;20029;-90
2022/03/08 09:50:31;;;;;;;18.15;10.40;;;;;;;;;;6191372;23;20024;-92
2022/03/08 09:52:57;;;;;;;13.98;9.40;;;;;;;;;;6166271;23;20337;-91
2022/03/08 09:55:25;;;;;;;13.63;9.10;;;;;;;;;;6192820;23;20383;-91
2022/03/08 09:57:52;;;;;;;13.63;9.07;;;;;;;;;;6193312;23;20001;-91
2022/03/08 10:00:19;;;;;;;11.80;8.10;;;;;;;;;;6192811;23;19997;-91
2022/03/08 10:02:49;;;;;;;14.52;9.88;;;;;;;;;;6166365;23;20009;-92
2022/03/08 10:05:16;;;;;;;13.85;8.50;;;;;;;;;;6192855;23;20001;-92
2022/03/08 10:08:01;;;;;;;11.18;7.60;;;;;;;;;;6166974;23;20100;-93
2022/03/08 10:10:27;;;;;;;11.88;8.05;;;;;;;;;;6166301;23;20394;-92
2022/03/08 10:12:57;;;;;;;12.65;8.30;;;;;;;;;;6166593;23;20095;-92
2022/03/08 10:15:23;;;;;;;12.25;7.70;;;;;;;;;;6166764;23;20048;-92
2022/03/08 10:17:49;;;;;;;16.65;9.45;;;;;;;;;;6193000;23;19993;-88
2022/03/08 10:20:28;;;;;;;18.25;10.95;;;;;;;;;;6166833;23;20032;-90
2022/03/08 10:22:54;;;;;;;23.05;11.50;;;;;;;;;;6192607;23;20017;-92
2022/03/08 10:25:22;;;;;;;13.00;8.32;;;;;;;;;;6193056;23;20256;-93
2022/03/08 10:27:51;;;;;;;12.50;7.53;;;;;;;;;;6192524;23;20004;-92
2022/03/08 10:30:17;;;;;;;13.45;7.75;;;;;;;;;;6192543;23;20083;-92
2022/03/08 10:32:43;;;;;;;16.15;8.45;;;;;;;;;;6192108;23;20001;-93
2022/03/08 10:35:10;;;;;;;14.77;8.52;;;;;;;;;;6192476;23;20005;-92
2022/03/08 10:37:38;;;;;;;11.50;8.02;;;;;;;;;;6192262;23;20040;-92
2022/03/08 10:40:08;;;;;;;15.85;8.15;;;;;;;;;;6166502;23;20368;-93
2022/03/08 10:42:39;;;;;;;17.15;11.35;;;;;;;;;;6166166;23;20001;-93
2022/03/08 10:45:09;;;;;;;14.35;8.20;;;;;;;;;;6192748;23;20005;-91
2022/03/08 10:47:45;;;;;;;14.82;9.32;;;;;;;;;;6166587;23;20006;-92
2022/03/08 10:50:13;;;;;;;19.73;10.80;;;;;;;;;;6166722;23;20407;-92
2022/03/08 10:52:40;;;;;;;15.23;8.80;;;;;;;;;;6192811;23;20001;-91
2022/03/08 10:55:09;;;;;;;18.30;10.90;;;;;;;;;;6192867;23;20364;-91
2022/03/08 10:57:35;;;;;;;15.98;9.10;;;;;;;;;;6192724;23;19997;-91
2022/03/08 11:00:01;;;;;;;18.38;10.23;;;;;;;;;;6192323;23;19993;-92
2022/03/08 11:02:27;;;;;;;14.85;9.85;;;;;;;;;;6192463;23;20001;-91
2022/03/08 11:05:19;;;;;;;23.25;12.75;;;;;;;;;;6166403;23;20052;-91
2022/03/08 11:07:46;;;;;;;29.45;15.55;;;;;;;;;;6163600;23;20016;-91
2022/03/08 11:10:12;;;;;;;35.28;19.20;;;;;;;;;;6166477;23;20012;-91
2022/03/08 11:12:39;;;;;;;30.20;16.35;;;;;;;;;;6192456;23;20011;-92
2022/03/08 11:15:06;;;;;;;15.05;9.35;;;;;;;;;;6192106;23;20238;-91
2022/03/08 11:17:36;;;;;;;21.67;11.75;;;;;;;;;;6192763;23;20001;-91
2022/03/08 11:20:04;;;;;;;27.30;14.00;;;;;;;;;;6192781;23;20013;-91
2022/03/08 11:22:31;;;;;;;20.85;9.70;;;;;;;;;;6192736;23;20008;-91
2022/03/08 11:24:57;;;;;;;19.92;11.00;;;;;;;;;;6191804;23;20005;-91
2022/03/08 11:27:23;;;;;;;17.50;10.77;;;;;;;;;;6166315;23;20001;-90
2022/03/08 11:29:50;;;;;;;20.88;10.23;;;;;;;;;;6192811;23;20005;-91
2022/03/08 11:32:35;;;;;;;22.77;11.05;;;;;;;;;;6192296;23;20390;-90
2022/03/08 11:35:12;;;;;;;65.68;30.83;;;;;;;;;;6192662;23;20402;-91
2022/03/08 11:37:40;;;;;;;42.65;21.17;;;;;;;;;;6192543;23;20051;-91
2022/03/08 11:40:11;;;;;;;32.85;18.02;;;;;;;;;;6192776;23;20004;-91
2022/03/08 11:42:41;;;;;;;47.22;23.55;;;;;;;;;;6191851;23;20021;-92
2022/03/08 11:45:19;;;;;;;58.33;29.73;;;;;;;;;;6192098;23;20021;-92
2022/03/08 11:48:02;;;;;;;52.63;27.30;;;;;;;;;;6166209;23;20363;-92
2022/03/08 11:50:39;;;;;;;98.07;47.15;;;;;;;;;;6191973;23;20348;-91
2022/03/08 11:53:19;;;;;;;22.75;13.55;;;;;;;;;;6166070;23;20005;-93
2022/03/08 11:55:47;;;;;;;29.02;16.25;;;;;;;;;;6191870;23;20001;-92
2022/03/08 11:58:18;;;;;;;16.73;11.05;;;;;;;;;;6192338;23;20001;-93
2022/03/08 12:00:46;;;;;;;16.73;11.95;;;;;;;;;;6165941;23;20427;-92
2022/03/08 12:03:24;;;;;;;19.00;13.48;;;;;;;;;;6192752;23;20080;-91
2022/03/08 12:06:09;;;;;;;21.15;12.60;;;;;;;;;;6192926;23;20072;-91
2022/03/08 12:08:35;;;;;;;20.20;12.30;;;;;;;;;;6192282;23;20009;-91
2022/03/08 12:11:01;;;;;;;19.55;12.20;;;;;;;;;;6192411;23;20056;-91
2022/03/08 12:13:28;;;;;;;20.60;12.48;;;;;;;;;;6191689;23;20013;-92
2022/03/08 12:16:10;;;;;;;16.88;8.98;;;;;;;;;;6191824;23;20005;-92
2022/03/08 12:18:37;;;;;;;13.60;8.55;;;;;;;;;;6165904;23;20012;-91
2022/03/08 12:21:19;;;;;;;11.32;7.18;;;;;;;;;;6191561;23;20012;-92
2022/03/08 12:23:55;;;;;;;12.10;7.72;;;;;;;;;;6192193;23;20016;-91
2022/03/08 12:26:27;;;;;;;16.33;9.95;;;;;;;;;;6165668;23;20005;-92
2022/03/08 12:29:06;;;;;;;14.45;9.00;;;;;;;;;;6191979;23;20048;-92
2022/03/08 12:31:32;;;;;;;14.45;9.60;;;;;;;;;;6191671;23;20008;-93
2022/03/08 12:34:02;;;;;;;15.20;8.60;;;;;;;;;;6191196;23;20009;-92
2022/03/08 12:36:28;;;;;;;16.10;10.70;;;;;;;;;;6191518;23;20004;-92
2022/03/08 12:38:54;;;;;;;19.23;12.07;;;;;;;;;;6191802;23;19997;-92
2022/03/08 12:41:27;;;;;;;20.02;10.32;;;;;;;;;;6191491;23;20020;-93
2022/03/08 12:43:52;;;;;;;;;;;;;;;;;;6165933;23;20087;-92
2022/03/08 12:46:19;;;;;;;19.35;10.32;;;;;;;;;;6191275;23;19904;-92
2022/03/08 12:48:45;;;;;;;18.52;10.63;;;;;;;;;;6164558;23;20371;-91
2022/03/08 12:51:13;;;;;;;20.33;11.45;;;;;;;;;;6165517;23;20001;-91
2022/03/08 12:53:40;;;;;;;17.02;10.48;;;;;;;;;;6164511;23;20013;-93
2022/03/08 12:56:13;;;;;;;16.02;10.55;;;;;;;;;;6165566;23;20431;-92
2022/03/08 12:58:39;;;;;;;;;;;;;;;;;;6191890;23;20070;-93
2022/03/08 13:01:13;;;;;;;25.42;14.82;;;;;;;;;;6191139;23;19900;-92
2022/03/08 13:03:43;;;;;;;28.90;16.33;;;;;;;;;;6165355;23;20376;-92
2022/03/08 13:06:10;;;;;;;25.73;15.45;;;;;;;;;;6191367;23;20079;-92
2022/03/08 13:08:40;;;;;;;31.45;18.33;;;;;;;;;;6165374;23;20040;-91
2022/03/08 13:11:08;;;;;;;24.50;13.23;;;;;;;;;;6164633;23;20011;-91
2022/03/08 13:13:37;;;;;;;15.73;9.60;;;;;;;;;;6164874;23;20096;-91
2022/03/08 13:16:04;;;;;;;13.15;9.10;;;;;;;;;;6190975;23;20001;-91
2022/03/08 13:18:35;;;;;;;17.02;9.48;;;;;;;;;;6164971;23;19997;-90
2022/03/08 13:21:01;;;;;;;33.03;13.82;;;;;;;;;;6165132;23;20120;-91
2022/03/08 13:23:28;;;;;;;36.00;13.75;;;;;;;;;;6191493;23;20097;-91
2022/03/08 13:25:56;;;;;;;27.52;14.75;;;;;;;;;;6191132;23;20008;-90
2022/03/08 13:28:26;;;;;;;26.23;13.52;;;;;;;;;;6191039;23;20047;-91
2022/03/08 13:30:53;;;;;;;53.50;39.38;;;;;;;;;;6191277;23;20009;-90
2022/03/08 13:33:28;;;;;;;22.60;14.27;;;;;;;;;;6191302;23;20009;-92
2022/03/08 13:35:55;;;;;;;14.82;10.40;;;;;;;;;;6190696;23;19997;-91
2022/03/08 13:38:26;;;;;;;17.23;11.25;;;;;;;;;;6191284;23;19997;-91
2022/03/08 13:40:53;;;;;;;14.95;10.00;;;;;;;;;;6191200;23;20005;-90
2022/03/08 13:43:19;;;;;;;17.77;10.35;;;;;;;;;;6164845;23;20037;-92
2022/03/08 13:45:46;;;;;;;19.23;11.02;;;;;;;;;;6165624;23;20027;-91
2022/03/08 13:48:15;;;;;;;21.55;13.40;;;;;;;;;;6191393;23;20009;-91
2022/03/08 13:50:42;;;;;;;18.33;11.60;;;;;;;;;;6190834;23;20080;-91
2022/03/08 13:53:10;;;;;;;25.00;10.70;;;;;;;;;;6191153;23;20001;-91
2022/03/08 13:55:37;;;;;;;23.35;13.73;;;;;;;;;;6190767;23;20020;-90
2022/03/08 13:58:04;;;;;;;33.20;20.05;;;;;;;;;;6191176;23;19997;-90
2022/03/08 14:00:32;;;;;;;25.77;14.02;;;;;;;;;;6190766;23;20001;-91
2022/03/08 14:02:59;;;;;;;14.60;9.82;;;;;;;;;;6191312;23;20072;-90
2022/03/08 14:05:25;;;;;;;19.15;11.25;;;;;;;;;;6191102;23;20032;-91
2022/03/08 14:07:58;;;;;;;19.00;12.20;;;;;;;;;;6164694;23;20009;-92
2022/03/08 14:10:24;;;;;;;21.33;10.20;;;;;;;;;;6164942;23;20009;-91
2022/03/08 14:12:51;;;;;;;27.77;15.07;;;;;;;;;;6190561;23;20009;-90
2022/03/08 14:15:17;;;;;;;15.15;9.23;;;;;;;;;;6190430;23;20009;-91
2022/03/08 14:17:49;;;;;;;18.60;11.07;;;;;;;;;;6191041;23;20001;-91
2022/03/08 14:20:24;;;;;;;24.95;13.65;;;;;;;;;;6164697;23;20005;-91
2022/03/08 14:23:04;;;;;;;11.73;7.72;;;;;;;;;;6164198;23;20008;-91
2022/03/08 14:25:31;;;;;;;21.38;10.80;;;;;;;;;;6164713;23;20364;-91
2022/03/08 14:27:57;;;;;;;18.90;10.38;;;;;;;;;;6191277;23;20005;-91
2022/03/08 14:30:24;;;;;;;42.67;17.80;;;;;;;;;;6190829;23;20001;-90
2022/03/08 14:32:51;;;;;;;27.77;15.15;;;;;;;;;;6190605;23;20101;-91
2022/03/08 14:35:18;;;;;;;18.90;11.63;;;;;;;;;;6191028;23;20028;-90
2022/03/08 14:37:45;;;;;;;16.13;11.25;;;;;;;;;;6165052;23;20005;-92
2022/03/08 14:40:11;;;;;;;17.20;9.82;;;;;;;;;;6165945;23;20088;-91
2022/03/08 14:42:39;;;;;;;18.20;10.70;;;;;;;;;;6192252;23;20080;-91
2022/03/08 14:45:13;;;;;;;21.17;12.48;;;;;;;;;;6192516;23;20026;-90
2022/03/08 14:47:40;;;;;;;25.83;13.75;;;;;;;;;;6192836;23;20024;-91
2022/03/08 14:50:07;;;;;;;18.30;11.27;;;;;;;;;;6166042;23;20272;-91
2022/03/08 14:52:35;;;;;;;29.88;13.80;;;;;;;;;;6192743;23;20005;-91
2022/03/08 14:55:03;;;;;;;11.77;6.43;;;;;;;;;;6192519;23;20013;-91
2022/03/08 14:57:29;;;;;;;12.48;6.63;;;;;;;;;;6192629;23;20001;-91
2022/03/08 14:59:56;;;;;;;16.45;9.25;;;;;;;;;;6192614;23;20001;-92
2022/03/08 15:02:23;;;;;;;15.85;7.07;;;;;;;;;;6192372;23;20426;-90
2022/03/08 15:04:49;;;;;;;11.63;7.00;;;;;;;;;;6192475;23;20241;-91
2022/03/08 15:07:15;;;;;;;19.35;10.18;;;;;;;;;;6192632;23;20019;-91
2022/03/08 15:09:42;;;;;;;16.60;8.95;;;;;;;;;;6192411;23;20039;-91
2022/03/08 15:12:08;;;;;;;20.67;9.45;;;;;;;;;;6192020;23;20005;-90
2022/03/08 15:14:35;;;;;;;25.05;12.35;;;;;;;;;;6165378;23;20084;-92
2022/03/08 15:17:01;;;;;;;21.70;10.52;;;;;;;;;;6192192;23;19997;-92
2022/03/08 15:19:27;;;;;;;16.13;8.20;;;;;;;;;;6192075;23;20029;-90
2022/03/08 15:21:53;;;;;;;14.48;8.10;;;;;;;;;;6192500;23;20001;-90
2022/03/08 15:24:20;;;;;;;18.65;8.35;;;;;;;;;;6192369;23;20005;-91
2022/03/08 15:26:46;;;;;;;24.65;9.80;;;;;;;;;;6192478;23;20020;-90
2022/03/08 15:29:13;;;;;;;30.10;11.98;;;;;;;;;;6191587;23;20005;-88
2022/03/08 15:31:39;;;;;;;24.88;10.95;;;;;;;;;;6192463;23;20032;-91
2022/03/08 15:34:06;;;;;;;21.63;10.98;;;;;;;;;;6165791;23;20009;-89
2022/03/08 15:36:32;;;;;;;31.08;12.63;;;;;;;;;;6192204;23;20047;-91
2022/03/08 15:38:58;;;;;;;23.48;10.80;;;;;;;;;;6165865;23;20100;-90
2022/03/08 15:41:25;;;;;;;17.40;9.63;;;;;;;;;;6192172;23;20004;-90
2022/03/08 15:43:52;;;;;;;13.75;7.90;;;;;;;;;;6189670;23;20005;-88
2022/03/08 15:46:19;;;;;;;20.23;10.35;;;;;;;;;;6191560;23;20076;-92
2022/03/08 15:48:46;;;;;;;9.30;5.93;;;;;;;;;;6166019;23;20316;-89
2022/03/08 15:51:13;;;;;;;20.35;9.93;;;;;;;;;;6165243;23;20272;-89
2022/03/08 15:53:39;;;;;;;13.77;7.97;;;;;;;;;;6164808;23;20016;-89
2022/03/08 15:56:05;;;;;;;13.68;7.63;;;;;;;;;;6191791;23;20072;-89
2022/03/08 15:58:32;;;;;;;13.13;7.03;;;;;;;;;;6165111;23;20001;-89
2022/03/08 16:00:58;;;;;;;11.07;6.68;;;;;;;;;;6191845;23;20005;-89
2022/03/08 16:03:25;;;;;;;13.02;7.30;;;;;;;;;;6165002;23;20009;-89
2022/03/08 16:05:51;;;;;;;13.25;6.95;;;;;;;;;;6191522;23;20005;-89
2022/03/08 16:08:19;;;;;;;14.43;8.27;;;;;;;;;;6191791;23;20005;-90
2022/03/08 16:10:45;;;;;;;11.23;7.43;;;;;;;;;;6191639;23;20028;-87
2022/03/08 16:13:12;;;;;;;10.40;6.75;;;;;;;;;;6164042;23;20008;-86
2022/03/08 16:15:40;;;;;;;12.20;7.68;;;;;;;;;;6165562;23;20019;-88
2022/03/08 16:18:06;;;;;;;13.48;8.20;;;;;;;;;;6165191;23;20056;-88
2022/03/08 16:20:32;;;;;;;13.07;7.07;;;;;;;;;;6191691;23;20001;-89
2022/03/08 16:23:02;;;;;;;9.93;6.10;;;;;;;;;;6191762;23;20001;-89
2022/03/08 16:25:28;;;;;;;12.15;5.88;;;;;;;;;;6164725;23;20009;-87
2022/03/08 16:30:57;;;;;;;16.13;8.32;;;;;;;;;;6191128;23;20085;-89
2022/03/08 16:33:23;;;;;;;17.23;8.50;;;;;;;;;;6191225;23;20012;-89
2022/03/08 16:35:49;;;;;;;18.75;9.63;;;;;;;;;;6191635;23;20334;-88
2022/03/08 16:38:15;;;;;;;20.00;11.15;;;;;;;;;;6191589;23;20237;-88
2022/03/08 16:40:42;;;;;;;24.33;13.02;;;;;;;;;;6191472;23;20162;-88
2022/03/08 16:43:09;;;;;;;28.63;13.80;;;;;;;;;;6164363;23;20017;-89
2022/03/08 16:45:35;;;;;;;18.52;9.85;;;;;;;;;;6165390;23;20071;-89
2022/03/08 16:48:02;;;;;;;17.60;9.65;;;;;;;;;;6164854;23;20376;-88
2022/03/08 16:50:28;;;;;;;26.67;11.68;;;;;;;;;;6191505;23;20009;-89
2022/03/08 16:52:54;;;;;;;25.10;11.98;;;;;;;;;;6190955;23;20001;-90
2022/03/08 16:55:20;;;;;;;15.70;8.80;;;;;;;;;;6191169;23;20032;-88
2022/03/08 16:57:47;;;;;;;14.70;8.32;;;;;;;;;;6191089;23;20028;-88
2022/03/08 17:00:14;;;;;;;14.45;8.10;;;;;;;;;;6190872;23;20427;-90
2022/03/08 17:02:40;;;;;;;16.55;9.40;;;;;;;;;;6191252;23;20353;-89
2022/03/08 17:05:07;;;;;;;16.75;9.80;;;;;;;;;;6191682;23;20285;-87
2022/03/08 17:07:33;;;;;;;19.50;9.50;;;;;;;;;;6191657;23;20006;-88
2022/03/08 17:10:00;;;;;;;12.55;8.20;;;;;;;;;;6191370;23;20012;-90
2022/03/08 17:12:26;;;;;;;17.98;9.50;;;;;;;;;;6165272;23;20005;-91
2022/03/08 17:14:52;;;;;;;13.30;8.80;;;;;;;;;;6191250;23;20017;-93
2022/03/08 17:17:18;;;;;;;19.38;10.80;;;;;;;;;;6191765;23;20032;-94
2022/03/08 17:19:44;;;;;;;14.52;9.50;;;;;;;;;;6191487;23;20073;-91
2022/03/08 17:22:10;;;;;;;14.38;9.32;;;;;;;;;;6191430;23;20089;-92
2022/03/08 17:24:36;;;;;;;21.35;8.43;;;;;;;;;;6191595;23;20043;-93
2022/03/08 17:27:03;;;;;;;14.45;8.48;;;;;;;;;;6190910;23;20005;-92
2022/03/08 17:29:29;;;;;;;20.42;11.23;;;;;;;;;;6190647;23;20033;-93
2022/03/08 17:31:55;;;;;;;19.85;11.25;;;;;;;;;;6164356;23;20005;-93
2022/03/08 17:34:21;;;;;;;20.40;11.00;;;;;;;;;;6190848;23;20008;-93